KMJX/MJX METAR and TAF weather

Enter ICAO airport designator
Station Type Date Time Source
KMJX METAR 2019/05/25 15:56 UTC NOAA

KMJX 251556Z AUTO 19007KT 170V240 10SM OVC080 21/11 A3025 RMK AO2 SLP248 T02110111


Station Type Date Time Source
KMJX Decoded METAR 2019/05/25 15:56 UTC NOAA

Station name not available
May 25, 2019 - 11:56 AM EDT / 2019.05.25 1556 UTC
Wind: from the S (190 degrees) at 8 MPH (7 KT) (direction variable):0
Visibility: 10 mile(s):0
Sky conditions: overcast
Temperature: 70.0 F (21.1 C)
Dew Point: 52.0 F (11.1 C)
Relative Humidity: 52%
Pressure (altimeter): 30.25 in. Hg (1024 hPa)
ob: KMJX 251556Z AUTO 19007KT 170V240 10SM OVC080 21/11 A3025 RMK AO2 SLP248 T02110111
cycle: 16

Station Type Date Time Source
KMJX TAF UTC NOAA

Error!

Example: see airport list